Time;durP1;ratioP1;P1;durP2;ratioP2;P2;SDS_P1;SDS_P2;PMS_P1;PMS_P2;Temp;Humidity;BMP_temperature;BMP_pressure;BME280_temperature;BME280_humidity;BME280_pressure;Samples;Min_cycle;Max_cycle;Signal;HPM_P1;HPM_P2
2023/12/08 00:00:12;;;;;;;;;;;;;;;11.95;49.90;100858.91;4897950;28;98996;-65
2023/12/08 00:02:38;;;;;;;;;;;;;;;11.93;49.95;100842.94;4882557;28;111548;-66
2023/12/08 00:05:05;;;;;;;;;;;;;;;11.93;49.85;100839.44;4884303;28;103424;-70
2023/12/08 00:07:31;;;;;;;;;;;;;;;11.93;50.07;100840.25;4880320;28;98217;-66
2023/12/08 00:09:57;;;;;;;;;;;;;;;11.93;49.82;100831.34;4880355;28;98278;-66
2023/12/08 00:12:23;;;;;;;;;;;;;;;11.93;50.06;100837.56;4882655;28;98223;-70
2023/12/08 00:14:50;;;;;;;;;;;;;;;11.91;49.80;100837.03;4908155;28;101588;-69
2023/12/08 00:17:16;;;;;;;;;;;;;;;11.92;49.88;100827.03;4899329;28;98484;-66
2023/12/08 00:19:42;;;;;;;;;;;;;;;11.92;49.98;100827.84;4919252;28;99752;-69
2023/12/08 00:22:08;;;;;;;;;;;;;;;11.93;50.04;100817.84;4910318;28;98701;-70
2023/12/08 00:24:34;;;;;;;;;;;;;;;11.92;50.06;100817.03;4898228;28;100399;-66
2023/12/08 00:27:01;;;;;;;;;;;;;;;11.93;49.80;100809.72;4884604;28;98327;-65
2023/12/08 00:29:27;;;;;;;;;;;;;;;11.93;50.06;100809.72;4885682;28;98147;-69
2023/12/08 00:31:53;;;;;;;;;;;;;;;11.91;50.02;100812.72;4900554;28;122616;-65
2023/12/08 00:34:19;;;;;;;;;;;;;;;11.91;49.88;100801.91;4915519;28;116940;-65
2023/12/08 00:36:45;;;;;;;;;;;;;;;11.91;49.80;100795.69;4928159;28;108851;-65
2023/12/08 00:39:11;;;;;;;;;;;;;;;11.91;49.89;100793.00;4914237;28;98425;-65
2023/12/08 00:41:37;;;;;;;;;;;;;;;11.90;49.86;100789.44;4912730;28;115176;-70
2023/12/08 00:44:03;;;;;;;;;;;;;;;11.91;49.80;100782.19;4917121;28;120993;-66
2023/12/08 00:46:30;;;;;;;;;;;;;;;11.91;50.05;100788.41;4914817;28;99283;-70
2023/12/08 00:48:56;;;;;;;;;;;;;;;11.90;50.04;100786.75;4881109;28;99818;-69
2023/12/08 00:51:22;;;;;;;;;;;;;;;11.90;50.03;100780.53;4900693;28;98596;-70
2023/12/08 00:53:48;;;;;;;;;;;;;;;11.89;49.88;100782.44;4902653;28;100416;-66
2023/12/08 00:56:14;;;;;;;;;;;;;;;11.89;50.04;100787.84;4898360;28;127047;-66
2023/12/08 00:58:40;;;;;;;;;;;;;;;11.89;49.87;100789.72;4899784;28;102387;-69
2023/12/08 01:01:06;;;;;;;;;;;;;;;11.90;49.95;100780.53;4898316;28;108650;-70
2023/12/08 01:03:32;;;;;;;;;;;;;;;11.90;49.79;100780.53;4880533;28;100180;-69
2023/12/08 01:05:58;;;;;;;;;;;;;;;11.89;50.10;100779.72;4912327;28;127473;-66
2023/12/08 01:08:24;;;;;;;;;;;;;;;11.89;50.07;100781.63;4881103;28;99470;-66
2023/12/08 01:10:50;;;;;;;;;;;;;;;11.90;49.77;100780.53;4897907;28;101070;-70
2023/12/08 01:13:16;;;;;;;;;;;;;;;11.90;50.00;100785.94;4900706;28;122109;-70
2023/12/08 01:15:42;;;;;;;;;;;;;;;11.89;49.91;100787.84;4899284;28;125859;-70
2023/12/08 01:18:08;;;;;;;;;;;;;;;11.89;49.81;100781.63;4900092;28;103889;-69
2023/12/08 01:20:36;;;;;;;;;;;;;;;11.90;49.80;100777.84;4899990;28;98050;-65
2023/12/08 01:23:02;;;;;;;;;;;;;;;11.89;49.81;100784.34;4880613;28;100068;-65
2023/12/08 01:25:27;;;;;;;;;;;;;;;11.89;49.94;100771.63;4859711;28;125745;-70
2023/12/08 01:27:55;;;;;;;;;;;;;;;11.89;50.02;100768.94;4883352;28;118073;-66
2023/12/08 01:30:21;;;;;;;;;;;;;;;11.89;49.88;100770.81;4900954;28;98551;-66
2023/12/08 01:32:47;;;;;;;;;;;;;;;11.89;49.83;100768.94;4884286;28;98454;-69
2023/12/08 01:35:13;;;;;;;;;;;;;;;11.89;49.96;100765.41;4899689;28;98301;-70
2023/12/08 01:37:39;;;;;;;;;;;;;;;11.88;50.05;100771.91;4895629;28;98447;-66
2023/12/08 01:40:06;;;;;;;;;;;;;;;11.88;49.91;100778.13;4902701;28;99497;-66
2023/12/08 01:42:32;;;;;;;;;;;;;;;11.88;49.90;100777.31;4886741;28;99894;-69
2023/12/08 01:44:58;;;;;;;;;;;;;;;11.87;50.04;100773.81;4916105;28;106214;-66
2023/12/08 01:47:24;;;;;;;;;;;;;;;11.88;49.76;100766.50;4903462;28;104596;-70
2023/12/08 01:49:51;;;;;;;;;;;;;;;11.87;50.03;100763.00;4885012;28;98179;-65
2023/12/08 01:52:22;;;;;;;;;;;;;;;11.86;49.89;100766.75;4911395;28;99956;-70
2023/12/08 01:54:49;;;;;;;;;;;;;;;11.86;49.98;100757.84;4888392;28;98396;-69
2023/12/08 01:57:15;;;;;;;;;;;;;;;11.86;49.83;100758.66;4913187;28;98846;-70
2023/12/08 01:59:41;;;;;;;;;;;;;;;11.87;49.92;100757.59;4899363;28;99221;-65
2023/12/08 02:02:07;;;;;;;;;;;;;;;11.86;50.01;100737.03;4885893;28;98395;-69
2023/12/08 02:04:33;;;;;;;;;;;;;;;11.86;49.94;100733.53;4886642;28;127745;-69
2023/12/08 02:06:59;;;;;;;;;;;;;;;11.86;49.84;100725.44;4901512;28;99410;-70
2023/12/08 02:09:25;;;;;;;;;;;;;;;11.86;49.81;100720.84;4893717;28;99222;-66
2023/12/08 02:11:51;;;;;;;;;;;;;;;11.85;49.91;100724.63;4882830;28;98270;-70
2023/12/08 02:14:17;;;;;;;;;;;;;;;11.85;49.91;100718.41;4887792;28;128365;-65
2023/12/08 02:16:54;;;;;;;;;;;;;;;11.84;49.93;100724.91;4899409;28;98222;-69
2023/12/08 02:19:20;;;;;;;;;;;;;;;11.82;49.97;100724.31;4884154;28;98620;-66
2023/12/08 02:21:46;;;;;;;;;;;;;;;11.82;49.97;100724.31;4894260;28;110125;-65
2023/12/08 02:24:12;;;;;;;;;;;;;;;11.81;49.93;100723.50;4881066;28;98507;-69
2023/12/08 02:26:37;;;;;;;;;;;;;;;11.80;49.98;100724.59;4892074;28;119842;-69
2023/12/08 02:29:08;;;;;;;;;;;;;;;11.78;49.87;100715.94;4883580;28;100030;-69
2023/12/08 02:31:37;;;;;;;;;;;;;;;11.77;49.84;100708.94;4876121;28;98192;-66
2023/12/08 02:34:03;;;;;;;;;;;;;;;11.75;50.06;100706.50;4912839;28;98298;-69
2023/12/08 02:36:30;;;;;;;;;;;;;;;11.73;49.82;100708.66;4885353;28;100295;-66
2023/12/08 02:38:56;;;;;;;;;;;;;;;11.72;50.16;100706.25;4884023;28;98370;-66
2023/12/08 02:41:22;;;;;;;;;;;;;;;11.70;50.04;100701.09;4884072;28;127608;-66
2023/12/08 02:43:48;;;;;;;;;;;;;;;11.69;50.02;100701.38;4863278;28;128851;-65
2023/12/08 02:46:14;;;;;;;;;;;;;;;11.68;49.99;100702.44;4895547;28;98395;-69
2023/12/08 02:48:40;;;;;;;;;;;;;;;11.66;49.99;100700.00;4882321;28;111435;-65
2023/12/08 02:51:07;;;;;;;;;;;;;;;11.65;49.99;100692.19;4909565;28;117638;-65
2023/12/08 02:53:32;;;;;;;;;;;;;;;11.63;49.95;100687.06;4882685;28;98901;-69
2023/12/08 02:55:58;;;;;;;;;;;;;;;11.62;50.00;100679.22;4884249;28;117353;-69
2023/12/08 02:58:24;;;;;;;;;;;;;;;11.61;49.86;100683.00;4896336;28;128126;-65
2023/12/08 03:00:50;;;;;;;;;;;;;;;11.59;49.81;100677.03;4899203;28;116440;-69
2023/12/08 03:03:16;;;;;;;;;;;;;;;11.57;49.84;100677.31;4879519;28;100422;-69
2023/12/08 03:05:42;;;;;;;;;;;;;;;11.55;49.99;100672.22;4883994;28;120044;-65
2023/12/08 03:08:08;;;;;;;;;;;;;;;11.53;50.14;100660.03;4877818;28;98285;-65
2023/12/08 03:10:34;;;;;;;;;;;;;;;11.52;49.84;100664.63;4882865;28;128543;-69
2023/12/08 03:13:01;;;;;;;;;;;;;;;11.49;49.87;100665.16;4898642;28;97869;-69
2023/12/08 03:15:26;;;;;;;;;;;;;;;11.50;49.96;100665.97;4911260;28;98158;-69
2023/12/08 03:17:52;;;;;;;;;;;;;;;11.48;49.97;100662.75;4880082;28;126897;-69
2023/12/08 03:20:18;;;;;;;;;;;;;;;11.46;50.01;100675.69;4895694;28;127882;-69
2023/12/08 03:22:49;;;;;;;;;;;;;;;11.45;49.90;100674.06;4897766;28;108303;-69
2023/12/08 03:25:15;;;;;;;;;;;;;;;11.43;49.90;100668.94;4884721;28;98376;-66
2023/12/08 03:27:41;;;;;;;;;;;;;;;11.42;49.97;100667.31;4898839;28;113796;-66
2023/12/08 03:30:07;;;;;;;;;;;;;;;11.41;50.01;100654.09;4882727;28;119821;-69
2023/12/08 03:32:33;;;;;;;;;;;;;;;11.40;50.00;100647.09;4899112;28;123824;-69
2023/12/08 03:35:00;;;;;;;;;;;;;;;11.38;50.04;100649.22;4897534;28;117776;-66
2023/12/08 03:37:26;;;;;;;;;;;;;;;11.37;50.06;100642.22;4882385;28;128199;-69
2023/12/08 03:39:53;;;;;;;;;;;;;;;11.36;49.97;100632.47;4882687;28;99685;-65
2023/12/08 03:42:19;;;;;;;;;;;;;;;11.35;49.77;100628.16;4900414;28;106072;-69
2023/12/08 03:44:45;;;;;;;;;;;;;;;11.33;49.87;100620.34;4882627;28;98602;-65
2023/12/08 03:47:11;;;;;;;;;;;;;;;11.31;50.35;100625.19;4882151;28;126508;-69
2023/12/08 03:49:37;;;;;;;;;;;;;;;11.31;50.00;100642.19;4894379;28;100139;-69
2023/12/08 03:52:03;;;;;;;;;;;;;;;11.29;50.05;100644.34;4890815;28;128663;-65
2023/12/08 03:54:29;;;;;;;;;;;;;;;11.29;49.91;100638.16;4862003;28;120582;-65
2023/12/08 03:56:55;;;;;;;;;;;;;;;11.28;49.74;100633.84;4888100;28;127199;-68
2023/12/08 03:59:21;;;;;;;;;;;;;;;11.27;49.87;100632.19;4875874;28;127162;-65
2023/12/08 04:01:51;;;;;;;;;;;;;;;11.26;49.91;100633.28;4883271;28;128156;-69
2023/12/08 04:04:17;;;;;;;;;;;;;;;11.25;49.98;100626.28;4897238;28;98575;-65
2023/12/08 04:06:43;;;;;;;;;;;;;;;11.22;49.90;100619.50;4909047;28;98470;-68
2023/12/08 04:09:09;;;;;;;;;;;;;;;11.22;49.84;100606.03;4896710;28;99776;-65
2023/12/08 04:11:35;;;;;;;;;;;;;;;11.21;49.98;100593.63;4880718;28;126701;-65
2023/12/08 04:14:01;;;;;;;;;;;;;;;11.22;49.76;100586.34;4900354;28;115867;-69
2023/12/08 04:16:27;;;;;;;;;;;;;;;11.20;50.09;100574.97;4913650;28;100187;-65
2023/12/08 04:18:53;;;;;;;;;;;;;;;11.20;50.09;100580.38;4898670;28;115775;-69
2023/12/08 04:21:19;;;;;;;;;;;;;;;11.18;49.94;100577.16;4895385;28;127285;-66
2023/12/08 04:23:45;;;;;;;;;;;;;;;11.17;50.01;100581.75;4893633;28;107792;-66
2023/12/08 04:26:11;;;;;;;;;;;;;;;11.15;49.96;100573.09;4894419;28;99672;-69
2023/12/08 04:28:37;;;;;;;;;;;;;;;11.14;49.76;100555.28;4897750;28;98345;-69
2023/12/08 04:31:04;;;;;;;;;;;;;;;11.15;50.04;100556.09;4878188;28;117916;-65
2023/12/08 04:33:29;;;;;;;;;;;;;;;11.12;49.92;100560.16;4912811;28;98028;-69
2023/12/08 04:35:56;;;;;;;;;;;;;;;11.12;49.94;100559.31;4909736;28;127663;-69
2023/12/08 04:38:21;;;;;;;;;;;;;;;11.10;50.01;100565.00;4911811;28;105917;-65
2023/12/08 04:40:47;;;;;;;;;;;;;;;11.09;49.96;100562.59;4909355;28;127834;-69
2023/12/08 04:43:13;;;;;;;;;;;;;;;11.09;49.76;100546.41;4895335;28;121531;-69
2023/12/08 04:45:41;;;;;;;;;;;;;;;11.06;49.81;100535.06;4862198;28;99086;-65
2023/12/08 04:48:07;;;;;;;;;;;;;;;11.06;49.69;100542.34;4899371;28;98664;-65
2023/12/08 04:50:33;;;;;;;;;;;;;;;11.05;49.82;100540.72;4902423;28;121434;-66
2023/12/08 04:52:59;;;;;;;;;;;;;;;11.04;49.93;100539.09;4902612;28;98424;-66
2023/12/08 04:55:25;;;;;;;;;;;;;;;11.02;50.10;100528.56;4901958;28;100190;-69
2023/12/08 04:57:51;;;;;;;;;;;;;;;11.02;50.07;100528.56;4900831;28;129927;-69
2023/12/08 05:00:17;;;;;;;;;;;;;;;11.00;49.85;100519.97;4916550;28;128430;-69
2023/12/08 05:02:43;;;;;;;;;;;;;;;11.00;50.02;100528.06;4868322;28;98641;-65
2023/12/08 05:05:09;;;;;;;;;;;;;;;10.98;49.94;100535.59;4898543;28;99520;-65
2023/12/08 05:07:35;;;;;;;;;;;;;;;10.99;49.92;100539.09;4889803;28;98738;-69
2023/12/08 05:10:01;;;;;;;;;;;;;;;10.98;50.03;100532.09;4902318;28;99344;-65
2023/12/08 05:12:27;;;;;;;;;;;;;;;10.96;49.96;100532.34;4881285;28;98266;-70
2023/12/08 05:14:53;;;;;;;;;;;;;;;10.95;49.77;100521.81;4902054;28;98263;-69
2023/12/08 05:17:19;;;;;;;;;;;;;;;10.95;49.92;100529.91;4915564;28;100010;-65
2023/12/08 05:19:45;;;;;;;;;;;;;;;10.94;50.10;100539.09;4901703;28;99071;-69
2023/12/08 05:22:11;;;;;;;;;;;;;;;10.93;49.53;100542.88;4916580;28;99060;-66
2023/12/08 05:24:37;;;;;;;;;;;;;;;10.91;50.02;100551.22;4896020;28;99128;-69
2023/12/08 05:27:03;;;;;;;;;;;;;;;10.91;50.11;100564.69;4913433;28;98188;-66
2023/12/08 05:29:29;;;;;;;;;;;;;;;10.91;49.98;100561.19;4898100;28;98452;-68
2023/12/08 05:31:55;;;;;;;;;;;;;;;10.90;49.83;100554.19;4900842;28;99060;-65
2023/12/08 05:34:21;;;;;;;;;;;;;;;10.89;50.08;100552.56;4928923;28;99368;-69
2023/12/08 05:36:47;;;;;;;;;;;;;;;10.90;49.73;100559.59;4899352;28;99704;-70
2023/12/08 05:39:14;;;;;;;;;;;;;;;10.89;49.63;100564.16;4913003;28;125254;-69
2023/12/08 05:41:40;;;;;;;;;;;;;;;10.87;49.80;100571.69;4881800;28;98553;-69
2023/12/08 05:44:06;;;;;;;;;;;;;;;10.88;50.00;100572.50;4907259;28;128454;-66
2023/12/08 05:46:32;;;;;;;;;;;;;;;10.88;49.99;100569.81;4912495;28;129216;-66
2023/12/08 05:48:58;;;;;;;;;;;;;;;10.87;49.80;100565.50;4911604;28;98418;-65
2023/12/08 05:51:24;;;;;;;;;;;;;;;10.85;49.97;100560.38;4894650;28;117173;-65
2023/12/08 05:53:50;;;;;;;;;;;;;;;10.87;50.00;100552.03;4909353;28;114028;-66
2023/12/08 05:56:16;;;;;;;;;;;;;;;10.86;49.67;100556.59;4894492;28;98262;-69
2023/12/08 05:58:42;;;;;;;;;;;;;;;10.86;49.74;100553.09;4907208;28;129634;-66
2023/12/08 06:01:11;;;;;;;;;;;;;;;10.84;49.97;100542.56;4912004;28;117833;-69
2023/12/08 06:03:37;;;;;;;;;;;;;;;10.84;49.86;100539.06;4922989;28;120388;-66
2023/12/08 06:06:03;;;;;;;;;;;;;;;10.83;49.94;100532.88;4890350;28;128555;-65
2023/12/08 06:08:29;;;;;;;;;;;;;;;10.82;49.86;100520.47;4912423;28;99811;-69
2023/12/08 06:10:55;;;;;;;;;;;;;;;10.80;50.02;100515.31;4909567;28;117070;-69
2023/12/08 06:13:21;;;;;;;;;;;;;;;10.81;50.03;100518.84;4878058;28;98212;-69
2023/12/08 06:15:47;;;;;;;;;;;;;;;10.79;50.10;100521.81;4898376;28;98465;-69
2023/12/08 06:18:13;;;;;;;;;;;;;;;10.79;49.71;100527.19;4897765;28;97999;-66
2023/12/08 06:20:39;;;;;;;;;;;;;;;10.79;50.02;100518.31;4894686;28;109585;-66
2023/12/08 06:23:05;;;;;;;;;;;;;;;10.77;49.87;100518.56;4879667;28;99479;-69
2023/12/08 06:25:31;;;;;;;;;;;;;;;10.77;49.84;100515.88;4883670;28;98540;-69
2023/12/08 06:27:57;;;;;;;;;;;;;;;10.77;49.96;100515.06;4898424;28;127669;-69
2023/12/08 06:30:24;;;;;;;;;;;;;;;10.76;49.94;100513.44;4896545;28;98600;-65
2023/12/08 06:32:50;;;;;;;;;;;;;;;10.76;49.81;100519.63;4878583;28;99659;-66
2023/12/08 06:35:15;;;;;;;;;;;;;;;10.76;49.61;100518.81;4897689;28;98404;-66
2023/12/08 06:37:42;;;;;;;;;;;;;;;10.77;50.00;100517.78;4896777;28;101757;-69
2023/12/08 06:40:09;;;;;;;;;;;;;;;10.77;49.91;100518.56;4896293;28;98137;-65
2023/12/08 06:42:35;;;;;;;;;;;;;;;10.77;49.83;100523.16;4884490;28;99774;-68
2023/12/08 06:45:02;;;;;;;;;;;;;;;10.78;49.84;100522.09;4895620;28;98336;-66
2023/12/08 06:47:28;;;;;;;;;;;;;;;10.77;49.56;100518.56;4894991;28;103773;-69
2023/12/08 06:49:54;;;;;;;;;;;;;;;10.77;49.95;100505.09;4882352;28;119761;-66
2023/12/08 06:52:20;;;;;;;;;;;;;;;10.78;49.75;100500.50;4912544;28;119130;-68
2023/12/08 06:54:47;;;;;;;;;;;;;;;10.78;49.74;100506.72;4898098;28;118251;-69
2023/12/08 06:57:14;;;;;;;;;;;;;;;10.78;49.73;100522.09;4896804;28;100098;-69
2023/12/08 06:59:40;;;;;;;;;;;;;;;10.77;49.58;100526.66;4885289;28;98342;-69
2023/12/08 07:02:06;;;;;;;;;;;;;;;10.78;49.68;100522.09;4894133;28;110195;-69
2023/12/08 07:04:32;;;;;;;;;;;;;;;10.79;49.59;100518.31;4882510;28;127923;-66
2023/12/08 07:06:58;;;;;;;;;;;;;;;10.80;49.61;100518.03;4909230;28;111291;-66
2023/12/08 07:09:24;;;;;;;;;;;;;;;10.81;49.80;100518.84;4899490;28;105697;-66
2023/12/08 07:11:50;;;;;;;;;;;;;;;10.82;49.54;100509.69;4883004;28;113443;-70
2023/12/08 07:14:16;;;;;;;;;;;;;;;10.85;49.67;100505.66;4906216;28;99703;-69
2023/12/08 07:16:45;;;;;;;;;;;;;;;10.86;49.84;100505.38;4912371;28;97975;-65
2023/12/08 07:19:11;;;;;;;;;;;;;;;10.89;49.70;100506.72;4930864;28;98141;-68
2023/12/08 07:21:44;;;;;;;;;;;;;;;10.90;49.55;100509.16;4899250;28;98430;-66
2023/12/08 07:24:10;;;;;;;;;;;;;;;10.92;49.48;100493.50;4915072;28;105875;-69
2023/12/08 07:26:37;;;;;;;;;;;;;;;10.95;49.67;100498.34;4913860;28;98283;-65
2023/12/08 07:29:03;;;;;;;;;;;;;;;10.98;49.60;100515.91;4883959;28;97934;-66
2023/12/08 07:31:29;;;;;;;;;;;;;;;11.01;49.48;100507.28;4912380;28;98175;-69
2023/12/08 07:33:55;;;;;;;;;;;;;;;11.03;49.47;100497.81;4912078;28;98704;-66
2023/12/08 07:36:21;;;;;;;;;;;;;;;11.09;49.30;100493.25;4900343;28;100912;-66
2023/12/08 07:38:47;;;;;;;;;;;;;;;11.16;49.61;100495.66;4898479;28;118744;-66
2023/12/08 07:41:13;;;;;;;;;;;;;;;11.21;49.64;100485.69;4896565;28;114244;-66
2023/12/08 07:43:40;;;;;;;;;;;;;;;11.25;49.35;100481.38;4899859;28;100611;-69
2023/12/08 07:46:07;;;;;;;;;;;;;;;11.31;49.20;100484.88;4892650;28;99823;-69
2023/12/08 07:48:33;;;;;;;;;;;;;;;11.39;49.07;100483.50;4913596;28;98008;-69
2023/12/08 07:50:59;;;;;;;;;;;;;;;11.46;49.26;100478.63;4903584;28;99529;-65
2023/12/08 07:53:25;;;;;;;;;;;;;;;11.55;49.19;100474.28;4918226;28;98730;-66
2023/12/08 07:55:51;;;;;;;;;;;;;;;11.67;48.97;100468.59;4913076;28;99258;-66
2023/12/08 07:58:17;;;;;;;;;;;;;;;11.83;48.98;100466.66;4897856;28;118197;-69
2023/12/08 08:00:43;;;;;;;;;;;;;;;11.98;48.88;100456.63;4860321;28;108088;-66
2023/12/08 08:03:09;;;;;;;;;;;;;;;12.21;48.63;100451.69;4912713;28;100423;-69
2023/12/08 08:05:35;;;;;;;;;;;;;;;12.50;48.43;100458.00;4915536;28;112233;-66
2023/12/08 08:08:02;;;;;;;;;;;;;;;12.98;47.93;100447.38;4900315;28;98588;-66
2023/12/08 08:10:28;;;;;;;;;;;;;;;13.37;47.92;100451.91;4899783;28;99178;-66
2023/12/08 08:12:54;;;;;;;;;;;;;;;13.71;47.76;100453.72;4913074;28;100123;-66
2023/12/08 08:15:20;;;;;;;;;;;;;;;13.91;47.59;100439.94;4898715;28;99437;-70
2023/12/08 08:17:46;;;;;;;;;;;;;;;14.11;47.52;100435.34;4909753;28;118886;-66
2023/12/08 08:20:12;;;;;;;;;;;;;;;14.35;47.51;100429.88;4910944;28;98734;-69
2023/12/08 08:22:38;;;;;;;;;;;;;;;14.54;47.57;100436.16;4919159;28;98414;-69
2023/12/08 08:25:05;;;;;;;;;;;;;;;14.68;47.50;100428.06;4900045;28;130091;-66
2023/12/08 08:27:32;;;;;;;;;;;;;;;14.86;47.67;100435.38;4923851;28;98226;-67
2023/12/08 08:29:58;;;;;;;;;;;;;;;14.99;47.69;100439.22;4914989;28;98421;-70
2023/12/08 08:32:24;;;;;;;;;;;;;;;15.19;47.86;100438.88;4934688;28;115574;-66
2023/12/08 08:34:51;;;;;;;;;;;;;;;15.27;47.78;100444.72;4922388;28;98645;-70
2023/12/08 08:37:17;;;;;;;;;;;;;;;15.39;47.76;100442.31;4917552;28;98558;-66
2023/12/08 08:39:43;;;;;;;;;;;;;;;15.45;47.78;100441.13;4923205;28;110457;-66
2023/12/08 08:42:09;;;;;;;;;;;;;;;15.52;47.76;100435.28;4907477;28;110504;-66
2023/12/08 08:44:36;;;;;;;;;;;;;;;15.65;47.85;100435.34;4906762;28;99376;-66
2023/12/08 08:47:02;;;;;;;;;;;;;;;15.77;47.63;100437.56;4907439;28;99009;-66
2023/12/08 08:49:28;;;;;;;;;;;;;;;15.85;47.76;100436.03;4923012;28;98399;-66
2023/12/08 08:51:54;;;;;;;;;;;;;;;15.97;47.72;100436.31;4905462;28;126223;-66
2023/12/08 08:54:20;;;;;;;;;;;;;;;16.02;47.88;100438.94;4902410;28;124371;-70
2023/12/08 08:56:46;;;;;;;;;;;;;;;16.09;47.79;100441.25;4918323;28;110818;-66
2023/12/08 08:59:12;;;;;;;;;;;;;;;16.17;47.67;100444.03;4909231;28;126302;-66
2023/12/08 09:01:38;;;;;;;;;;;;;;;16.10;47.99;100451.00;4910738;28;99307;-66
2023/12/08 09:04:04;;;;;;;;;;;;;;;15.98;48.10;100448.81;4906055;28;98461;-66
2023/12/08 09:06:31;;;;;;;;;;;;;;;15.85;48.25;100453.16;4922072;28;99436;-66
2023/12/08 09:08:56;;;;;;;;;;;;;;;15.74;48.35;100456.38;4885768;28;117460;-66
2023/12/08 09:11:22;;;;;;;;;;;;;;;15.61;48.45;100450.59;4918144;28;110479;-69
2023/12/08 09:13:48;;;;;;;;;;;;;;;15.50;48.50;100461.97;4917857;28;98662;-69
2023/12/08 09:16:15;;;;;;;;;;;;;;;15.41;48.63;100456.41;4886688;28;98110;-66
2023/12/08 09:18:41;;;;;;;;;;;;;;;15.34;48.63;100456.81;4899962;28;99596;-66
2023/12/08 09:21:07;;;;;;;;;;;;;;;15.27;48.62;100453.66;4916019;28;126390;-69
2023/12/08 09:23:33;;;;;;;;;;;;;;;15.20;48.58;100464.09;4904872;28;100729;-70
2023/12/08 09:25:59;;;;;;;;;;;;;;;15.15;48.62;100461.47;4904440;28;98255;-66
2023/12/08 09:28:25;;;;;;;;;;;;;;;15.09;48.80;100459.94;4906007;28;99542;-66
2023/12/08 09:30:51;;;;;;;;;;;;;;;15.05;48.84;100461.66;4924076;28;99619;-69
2023/12/08 09:33:17;;;;;;;;;;;;;;;15.01;48.91;100458.72;4915296;28;100736;-69
2023/12/08 09:35:43;;;;;;;;;;;;;;;14.98;48.70;100449.28;4900773;28;98313;-69
2023/12/08 09:38:09;;;;;;;;;;;;;;;14.95;48.58;100455.28;4898569;28;98332;-66
2023/12/08 09:40:36;;;;;;;;;;;;;;;14.95;48.83;100458.00;4917309;28;99576;-66
2023/12/08 09:43:18;;;;;;;;;;;;;;;14.95;48.89;100454.50;4918233;28;99176;-66
2023/12/08 09:45:44;;;;;;;;;;;;;;;14.95;48.79;100452.56;4901842;28;98189;-69
2023/12/08 09:48:10;;;;;;;;;;;;;;;14.96;48.79;100450.66;4904144;28;99617;-66
2023/12/08 09:50:36;;;;;;;;;;;;;;;14.96;48.45;100447.94;4902714;28;126809;-66
2023/12/08 09:53:03;;;;;;;;;;;;;;;14.97;48.67;100442.25;4902596;28;98186;-70
2023/12/08 09:55:28;;;;;;;;;;;;;;;14.98;48.81;100435.69;4902244;28;98423;-66
2023/12/08 09:57:54;;;;;;;;;;;;;;;15.01;48.69;100434.28;4930115;28;130599;-66
2023/12/08 10:00:22;;;;;;;;;;;;;;;15.04;48.70;100422.03;4904005;28;128129;-69
2023/12/08 10:02:49;;;;;;;;;;;;;;;15.06;48.60;100422.56;4903095;28;98107;-70
2023/12/08 10:05:15;;;;;;;;;;;;;;;15.08;48.82;100413.00;4900104;28;98169;-66
2023/12/08 10:07:43;;;;;;;;;;;;;;;15.08;48.75;100415.72;4916055;28;98775;-69
2023/12/08 10:10:09;;;;;;;;;;;;;;;15.05;48.76;100405.47;4919282;28;98303;-70
2023/12/08 10:12:36;;;;;;;;;;;;;;;15.03;48.83;100396.00;4917770;28;98411;-66
2023/12/08 10:15:02;;;;;;;;;;;;;;;14.98;48.89;100384.13;4902253;28;98366;-69
2023/12/08 10:17:28;;;;;;;;;;;;;;;14.93;48.92;100373.38;4901382;28;102682;-69
2023/12/08 10:20:10;;;;;;;;;;;;;;;14.89;49.00;100375.06;4889530;28;98400;-69
2023/12/08 10:22:50;;;;;;;;;;;;;;;14.85;48.97;100363.19;4920179;28;98926;-66
2023/12/08 10:25:17;;;;;;;;;;;;;;;14.81;48.99;100367.59;4918409;28;98638;-66
2023/12/08 10:27:49;;;;;;;;;;;;;;;14.79;49.04;100361.69;4915787;28;98463;-70
2023/12/08 10:30:17;;;;;;;;;;;;;;;14.76;49.02;100361.47;4902553;28;99398;-66
2023/12/08 10:32:43;;;;;;;;;;;;;;;14.73;49.12;100354.72;4912918;28;100856;-69
2023/12/08 10:35:11;;;;;;;;;;;;;;;14.73;48.96;100349.28;4916894;28;98268;-66
2023/12/08 10:37:40;;;;;;;;;;;;;;;14.70;49.09;100353.41;4913501;28;98558;-66
2023/12/08 10:40:08;;;;;;;;;;;;;;;14.68;48.94;100346.66;4866658;28;113819;-70
2023/12/08 10:42:34;;;;;;;;;;;;;;;14.64;48.94;100348.38;4899213;28;98206;-69
2023/12/08 10:45:00;;;;;;;;;;;;;;;14.60;48.85;100347.34;4927428;28;98151;-70
2023/12/08 10:47:26;;;;;;;;;;;;;;;14.57;48.95;100331.66;4913949;28;98149;-70
2023/12/08 10:49:53;;;;;;;;;;;;;;;14.53;48.88;100339.59;4929132;28;98348;-69
2023/12/08 10:52:19;;;;;;;;;;;;;;;14.51;49.30;100338.28;4913168;28;98669;-66
2023/12/08 10:54:45;;;;;;;;;;;;;;;14.51;48.89;100338.28;4883924;28;98432;-66
2023/12/08 10:57:11;;;;;;;;;;;;;;;14.50;49.10;100337.47;4912568;28;110948;-66
2023/12/08 10:59:38;;;;;;;;;;;;;;;14.51;48.87;100341.00;4912406;28;98680;-66
2023/12/08 11:02:04;;;;;;;;;;;;;;;14.52;48.86;100339.91;4915234;28;98315;-69
2023/12/08 11:04:31;;;;;;;;;;;;;;;14.51;49.11;100333.66;4915652;28;97971;-66
2023/12/08 11:07:02;;;;;;;;;;;;;;;14.53;49.17;100331.44;4916734;28;98512;-70
2023/12/08 11:09:29;;;;;;;;;;;;;;;14.56;48.94;100332.78;4916597;28;98588;-66
2023/12/08 11:11:55;;;;;;;;;;;;;;;14.59;48.81;100334.91;4914504;28;99513;-66
2023/12/08 11:14:48;;;;;;;;;;;;;;;14.62;48.84;100328.84;4914224;28;98345;-66
2023/12/08 11:17:21;;;;;;;;;;;;;;;14.69;48.95;100319.22;4930469;28;98161;-70
2023/12/08 11:19:47;;;;;;;;;;;;;;;14.73;48.73;100325.66;4897601;28;98170;-70
2023/12/08 11:22:13;;;;;;;;;;;;;;;14.79;48.72;100325.59;4909924;28;97936;-70
2023/12/08 11:24:39;;;;;;;;;;;;;;;14.83;48.47;100323.91;4884438;28;99133;-70
2023/12/08 11:27:13;;;;;;;;;;;;;;;14.88;48.59;100319.16;4896680;28;99490;-65
2023/12/08 11:29:47;;;;;;;;;;;;;;;14.96;48.62;100320.38;4918682;28;99267;-70
2023/12/08 11:32:38;;;;;;;;;;;;;;;15.03;48.57;100331.66;4915885;28;113560;-66
2023/12/08 11:35:09;;;;;;;;;;;;;;;15.07;48.67;100334.59;4910285;28;98108;-66
2023/12/08 11:37:36;;;;;;;;;;;;;;;15.10;48.62;100348.38;4896239;28;98319;-66
2023/12/08 11:40:11;;;;;;;;;;;;;;;15.15;48.58;100347.47;4901448;28;98708;-66
2023/12/08 11:42:46;;;;;;;;;;;;;;;15.20;48.43;100348.16;4896828;28;99273;-70
2023/12/08 11:45:12;;;;;;;;;;;;;;;15.22;48.48;100339.72;4916166;28;98374;-66
2023/12/08 11:47:39;;;;;;;;;;;;;;;15.21;48.71;100349.00;4910267;28;99586;-70
2023/12/08 11:50:06;;;;;;;;;;;;;;;15.17;48.63;100342.56;4896091;28;98172;-70
2023/12/08 11:52:37;;;;;;;;;;;;;;;15.13;48.83;100336.09;4915002;28;98787;-70
2023/12/08 11:55:16;;;;;;;;;;;;;;;15.08;48.88;100345.13;4897337;28;97995;-70
2023/12/08 11:58:01;;;;;;;;;;;;;;;15.04;48.89;100348.75;4899233;28;116992;-66
2023/12/08 12:00:28;;;;;;;;;;;;;;;15.00;48.92;100348.53;4928091;28;98437;-70
2023/12/08 12:02:55;;;;;;;;;;;;;;;14.95;48.80;100351.34;4915763;28;98316;-70
2023/12/08 12:05:21;;;;;;;;;;;;;;;14.90;48.79;100348.75;4911424;28;98287;-66
2023/12/08 12:07:51;;;;;;;;;;;;;;;14.86;49.11;100345.81;4916560;28;98226;-66
2023/12/08 12:10:23;;;;;;;;;;;;;;;14.85;49.05;100343.38;4931085;28;98131;-70
2023/12/08 12:12:56;;;;;;;;;;;;;;;14.86;49.10;100347.72;4911273;28;99641;-70
2023/12/08 12:15:24;;;;;;;;;;;;;;;14.86;48.71;100345.03;4916654;28;98469;-66
2023/12/08 12:17:51;;;;;;;;;;;;;;;14.86;48.95;100350.44;4915888;28;99089;-69
2023/12/08 12:20:17;;;;;;;;;;;;;;;14.85;48.83;100356.94;4915630;28;98505;-66
2023/12/08 12:22:43;;;;;;;;;;;;;;;14.83;48.90;100357.25;4915427;28;124073;-70
2023/12/08 12:25:10;;;;;;;;;;;;;;;14.83;48.68;100356.47;4917236;28;118918;-66
2023/12/08 12:27:45;;;;;;;;;;;;;;;14.81;49.07;100336.94;4901267;28;98075;-69
2023/12/08 12:30:11;;;;;;;;;;;;;;;14.76;48.87;100345.19;4898839;28;99639;-66